createdAt,value
2017-01-08T00:01:16.381Z,1026.87
2017-01-08T00:02:39.338Z,1026.86
2017-01-08T00:04:01.493Z,1026.83
2017-01-08T00:05:24.134Z,1026.8
2017-01-08T00:06:46.710Z,1026.78
2017-01-08T00:08:09.212Z,1026.79
2017-01-08T00:09:31.852Z,1026.82
2017-01-08T00:10:54.349Z,1026.76
2017-01-08T00:12:16.864Z,1026.79
2017-01-08T00:13:39.390Z,1026.8
2017-01-08T00:15:01.912Z,1026.8
2017-01-08T00:16:24.490Z,1026.82
2017-01-08T00:17:46.979Z,1026.78
2017-01-08T00:19:09.079Z,1026.76
2017-01-08T00:20:30.345Z,1026.74
2017-01-08T00:21:52.944Z,1026.77
2017-01-08T00:23:15.477Z,1026.8
2017-01-08T00:24:38.430Z,1026.77
2017-01-08T00:26:00.961Z,1026.76
2017-01-08T00:27:23.831Z,1026.81
2017-01-08T00:28:46.300Z,1026.84
2017-01-08T00:30:09.180Z,1026.78
2017-01-08T00:31:31.284Z,1026.77
2017-01-08T00:32:53.355Z,1026.74
2017-01-08T00:34:15.956Z,1026.74
2017-01-08T00:35:38.837Z,1026.79
2017-01-08T00:37:01.032Z,1026.81
2017-01-08T00:38:23.906Z,1026.87
2017-01-08T00:39:45.947Z,1026.95
2017-01-08T00:41:08.445Z,1026.93
2017-01-08T00:42:30.907Z,1026.91
2017-01-08T00:43:53.776Z,1026.93
2017-01-08T00:45:16.282Z,1026.97
2017-01-08T00:46:38.355Z,1026.94
2017-01-08T00:47:59.624Z,1027.02
2017-01-08T00:49:21.861Z,1027.03
2017-01-08T00:50:44.782Z,1027.02
2017-01-08T00:52:07.741Z,1027.01
2017-01-08T00:53:30.216Z,1027.06
2017-01-08T00:54:52.808Z,1027.05
2017-01-08T00:56:15.384Z,1026.97
2017-01-08T00:57:38.256Z,1026.97
2017-01-08T00:59:00.715Z,1026.97
2017-01-08T01:00:23.191Z,1026.97
2017-01-08T01:01:44.602Z,1027.04
2017-01-08T01:03:07.521Z,1027.08
2017-01-08T01:04:29.561Z,1027.09
2017-01-08T01:05:51.712Z,1027.12
2017-01-08T01:07:13.982Z,1027.16
2017-01-08T01:08:36.442Z,1027.13
2017-01-08T01:09:59.332Z,1027.15
2017-01-08T01:11:22.183Z,1027.16
2017-01-08T01:12:45.116Z,1027.12
2017-01-08T01:14:07.582Z,1027.16
2017-01-08T01:15:29.743Z,1027.18
2017-01-08T01:16:52.204Z,1027.16
2017-01-08T01:18:15.056Z,1027.21
2017-01-08T01:19:37.937Z,1027.19
2017-01-08T01:21:00.049Z,1027.23
2017-01-08T01:22:22.136Z,1027.2
2017-01-08T01:23:44.712Z,1027.26
2017-01-08T01:25:06.853Z,1027.27
2017-01-08T01:26:29.316Z,1027.24
2017-01-08T01:27:51.829Z,1027.26
2017-01-08T01:29:14.800Z,1027.23
2017-01-08T01:30:36.496Z,1027.28
2017-01-08T01:31:58.938Z,1027.25
2017-01-08T01:33:21.845Z,1027.25
2017-01-08T01:34:44.396Z,1027.29
2017-01-08T01:36:07.310Z,1027.29
2017-01-08T01:37:29.032Z,1027.25
2017-01-08T01:38:51.494Z,1027.22
2017-01-08T01:40:13.967Z,1027.19
2017-01-08T01:41:36.946Z,1027.21
2017-01-08T01:42:59.140Z,1027.19
2017-01-08T01:44:21.284Z,1027.16
2017-01-08T01:45:43.342Z,1027.19
2017-01-08T01:47:06.294Z,1027.17
2017-01-08T01:48:28.403Z,1027.24
2017-01-08T01:49:51.294Z,1027.23
2017-01-08T01:51:12.974Z,1027.25
2017-01-08T01:52:35.040Z,1027.23
2017-01-08T01:53:57.538Z,1027.22
2017-01-08T01:55:19.643Z,1027.19
2017-01-08T01:56:42.104Z,1027.23
2017-01-08T01:58:04.566Z,1027.24
2017-01-08T01:59:26.644Z,1027.27
2017-01-08T02:00:48.365Z,1027.29
2017-01-08T02:02:11.230Z,1027.31
2017-01-08T02:03:33.701Z,1027.35
2017-01-08T02:04:56.213Z,1027.41
2017-01-08T02:06:18.703Z,1027.49
2017-01-08T02:07:41.743Z,1027.5
2017-01-08T02:09:04.590Z,1027.53
2017-01-08T02:10:26.714Z,1027.6
2017-01-08T02:11:48.871Z,1027.6
2017-01-08T02:13:10.913Z,1027.62
2017-01-08T02:14:33.388Z,1027.62
2017-01-08T02:15:55.895Z,1027.63
2017-01-08T02:17:17.545Z,1027.72
2017-01-08T02:18:39.198Z,1027.64
2017-01-08T02:20:01.356Z,1027.63
2017-01-08T02:21:24.225Z,1027.61
2017-01-08T02:22:47.102Z,1027.57
2017-01-08T02:24:09.158Z,1027.65
2017-01-08T02:25:31.217Z,1027.64
2017-01-08T02:26:53.261Z,1027.62
2017-01-08T02:28:15.321Z,1027.63
2017-01-08T02:29:37.829Z,1027.65
2017-01-08T02:30:59.995Z,1027.63
2017-01-08T02:32:21.677Z,1027.64
2017-01-08T02:33:44.564Z,1027.66
2017-01-08T02:35:06.676Z,1027.7
2017-01-08T02:36:28.721Z,1027.74
2017-01-08T02:37:50.778Z,1027.73
2017-01-08T02:39:12.503Z,1027.8
2017-01-08T02:40:34.575Z,1027.73
2017-01-08T02:41:56.629Z,1027.84
2017-01-08T02:43:19.514Z,1027.84
2017-01-08T02:44:42.040Z,1027.86
2017-01-08T02:46:04.130Z,1027.86
2017-01-08T02:47:27.000Z,1027.85
2017-01-08T02:48:48.667Z,1027.9
2017-01-08T02:50:10.724Z,1027.91
2017-01-08T02:51:33.186Z,1027.87
2017-01-08T02:52:55.338Z,1027.82
2017-01-08T02:54:17.793Z,1027.86
2017-01-08T02:55:40.633Z,1027.87
2017-01-08T02:57:02.783Z,1027.84
2017-01-08T02:58:23.701Z,1027.86
2017-01-08T02:59:45.773Z,1027.9
2017-01-08T03:01:07.433Z,1027.85
2017-01-08T03:02:29.935Z,1027.9
2017-01-08T03:03:52.792Z,1027.91
2017-01-08T03:05:14.863Z,1027.95
2017-01-08T03:06:37.380Z,1027.93
2017-01-08T03:07:59.926Z,1027.97
2017-01-08T03:09:22.185Z,1028
2017-01-08T03:10:44.272Z,1028
2017-01-08T03:12:06.395Z,1028.06
2017-01-08T03:13:28.116Z,1028.03
2017-01-08T03:14:50.536Z,1028.05
2017-01-08T03:16:11.968Z,1028.01
2017-01-08T03:17:34.068Z,1028.05
2017-01-08T03:18:56.132Z,1028.12
2017-01-08T03:20:18.202Z,1028.08
2017-01-08T03:21:41.116Z,1028.09
2017-01-08T03:23:03.181Z,1028.14
2017-01-08T03:24:25.238Z,1028.14
2017-01-08T03:25:48.163Z,1028.13
2017-01-08T03:27:10.657Z,1028.13
2017-01-08T03:28:32.726Z,1028.1
2017-01-08T03:29:55.262Z,1028.1
2017-01-08T03:31:17.318Z,1028.09
2017-01-08T03:32:38.988Z,1028.08
2017-01-08T03:34:01.098Z,1028.09
2017-01-08T03:35:23.949Z,1028.11
2017-01-08T03:36:46.018Z,1028.15
2017-01-08T03:38:08.084Z,1028.14
2017-01-08T03:39:30.608Z,1028.19
2017-01-08T03:40:53.470Z,1028.18
2017-01-08T03:42:15.993Z,1028.13
2017-01-08T03:43:38.055Z,1028.11
2017-01-08T03:45:00.901Z,1028.07
2017-01-08T03:46:23.392Z,1028.09
2017-01-08T03:47:45.507Z,1028.07
2017-01-08T03:49:07.596Z,1028.13
2017-01-08T03:50:30.065Z,1028.12
2017-01-08T03:51:52.574Z,1028.15
2017-01-08T03:53:14.734Z,1028.19
2017-01-08T03:54:37.195Z,1028.22
2017-01-08T03:56:00.064Z,1028.25
2017-01-08T03:57:22.205Z,1028.25
2017-01-08T03:58:44.273Z,1028.2
2017-01-08T04:00:06.056Z,1028.22
2017-01-08T04:01:28.523Z,1028.19
2017-01-08T04:02:50.171Z,1028.19
2017-01-08T04:04:11.979Z,1028.15
2017-01-08T04:05:33.742Z,1028.13
2017-01-08T04:06:55.973Z,1028.15
2017-01-08T04:08:18.955Z,1028.17
2017-01-08T04:09:41.797Z,1028.21
2017-01-08T04:11:03.862Z,1028.18
2017-01-08T04:12:25.933Z,1028.18
2017-01-08T04:13:47.994Z,1028.19
2017-01-08T04:15:09.658Z,1028.21
2017-01-08T04:16:32.171Z,1028.27
2017-01-08T04:17:54.624Z,1028.27
2017-01-08T04:19:16.692Z,1028.29
2017-01-08T04:20:38.794Z,1028.37
2017-01-08T04:22:00.835Z,1028.38
2017-01-08T04:23:23.288Z,1028.4
2017-01-08T04:24:45.844Z,1028.41
2017-01-08T04:26:07.650Z,1028.46
2017-01-08T04:27:30.563Z,1028.43
2017-01-08T04:28:53.581Z,1028.46
2017-01-08T04:30:15.262Z,1028.51
2017-01-08T04:31:37.425Z,1028.54
2017-01-08T04:33:00.044Z,1028.48
2017-01-08T04:34:22.526Z,1028.47
2017-01-08T04:35:44.663Z,1028.47
2017-01-08T04:37:06.103Z,1028.48
2017-01-08T04:38:28.947Z,1028.48
2017-01-08T04:39:51.519Z,1028.5
2017-01-08T04:41:13.987Z,1028.44
2017-01-08T04:42:35.254Z,1028.38
2017-01-08T04:43:57.297Z,1028.51
2017-01-08T04:45:19.770Z,1028.45
2017-01-08T04:46:42.721Z,1028.51
2017-01-08T04:48:04.792Z,1028.49
2017-01-08T04:49:26.836Z,1028.48
2017-01-08T04:50:49.749Z,1028.49
2017-01-08T04:52:12.595Z,1028.53
2017-01-08T04:53:34.239Z,1028.58
2017-01-08T04:54:57.229Z,1028.6
2017-01-08T04:56:19.704Z,1028.64
2017-01-08T04:57:41.879Z,1028.63
2017-01-08T04:59:04.445Z,1028.67
2017-01-08T05:00:26.913Z,1028.68
2017-01-08T05:01:49.382Z,1028.77
2017-01-08T05:03:11.446Z,1028.75
2017-01-08T05:04:33.886Z,1028.74
2017-01-08T05:05:56.768Z,1028.78
2017-01-08T05:07:19.233Z,1028.75
2017-01-08T05:08:40.891Z,1028.82
2017-01-08T05:10:03.769Z,1028.83
2017-01-08T05:11:25.954Z,1028.96
2017-01-08T05:12:48.436Z,1028.91
2017-01-08T05:14:10.559Z,1028.9
2017-01-08T05:15:33.428Z,1028.97
2017-01-08T05:16:56.303Z,1028.93
2017-01-08T05:18:17.567Z,1028.92
2017-01-08T05:19:39.706Z,1028.89
2017-01-08T05:21:01.813Z,1028.88
2017-01-08T05:22:23.910Z,1028.87
2017-01-08T05:23:45.577Z,1028.89
2017-01-08T05:25:08.424Z,1028.93
2017-01-08T05:26:30.982Z,1028.99
2017-01-08T05:27:53.860Z,1029.02
2017-01-08T05:29:15.225Z,1029.03
2017-01-08T05:30:38.078Z,1029.07
2017-01-08T05:31:59.747Z,1029.07
2017-01-08T05:33:22.694Z,1029.14
2017-01-08T05:34:43.957Z,1029.16
2017-01-08T05:36:05.718Z,1029.18
2017-01-08T05:37:28.617Z,1029.15
2017-01-08T05:38:51.071Z,1029.23
2017-01-08T05:40:13.581Z,1029.23
2017-01-08T05:41:35.624Z,1029.28
2017-01-08T05:42:57.316Z,1029.25
2017-01-08T05:44:20.165Z,1029.26
2017-01-08T05:45:42.668Z,1029.31
2017-01-08T05:47:04.779Z,1029.33
2017-01-08T05:48:26.047Z,1029.31
2017-01-08T05:49:46.927Z,1029.29
2017-01-08T05:51:08.978Z,1029.33
2017-01-08T05:52:31.846Z,1029.36
2017-01-08T05:53:54.392Z,1029.35
2017-01-08T05:55:16.864Z,1029.41
2017-01-08T05:56:39.719Z,1029.48
2017-01-08T05:58:01.820Z,1029.49
2017-01-08T05:59:24.339Z,1029.55
2017-01-08T06:00:46.930Z,1029.55
2017-01-08T06:02:09.878Z,1029.57
2017-01-08T06:03:32.328Z,1029.57
2017-01-08T06:04:55.173Z,1029.57
2017-01-08T06:06:18.112Z,1029.61
2017-01-08T06:07:40.941Z,1029.54
2017-01-08T06:09:03.382Z,1029.61
2017-01-08T06:10:25.030Z,1029.59
2017-01-08T06:11:47.938Z,1029.59
2017-01-08T06:13:09.756Z,1029.63
2017-01-08T06:14:32.221Z,1029.59
2017-01-08T06:15:54.712Z,1029.6
2017-01-08T06:17:16.909Z,1029.63
2017-01-08T06:18:39.379Z,1029.7
2017-01-08T06:20:01.858Z,1029.76
2017-01-08T06:21:23.960Z,1029.7
2017-01-08T06:22:46.052Z,1029.74
2017-01-08T06:24:08.126Z,1029.71
2017-01-08T06:25:30.579Z,1029.76
2017-01-08T06:26:52.339Z,1029.72
2017-01-08T06:28:13.985Z,1029.8
2017-01-08T06:29:36.078Z,1029.77
2017-01-08T06:30:58.925Z,1029.72
2017-01-08T06:32:21.520Z,1029.77
2017-01-08T06:33:43.599Z,1029.79
2017-01-08T06:35:06.109Z,1029.85
2017-01-08T06:36:28.671Z,1029.87
2017-01-08T06:37:50.710Z,1029.9
2017-01-08T06:39:12.358Z,1029.9
2017-01-08T06:40:34.829Z,1029.86
2017-01-08T06:41:57.299Z,1029.87
2017-01-08T06:43:18.573Z,1029.82
2017-01-08T06:44:40.231Z,1029.85
2017-01-08T06:46:01.901Z,1029.79
2017-01-08T06:47:24.076Z,1029.85
2017-01-08T06:48:45.804Z,1029.82
2017-01-08T06:50:07.872Z,1029.87
2017-01-08T06:51:29.252Z,1029.86
2017-01-08T06:52:51.360Z,1029.88
2017-01-08T06:54:13.415Z,1029.89
2017-01-08T06:55:35.463Z,1029.9
2017-01-08T06:56:58.424Z,1029.94
2017-01-08T06:58:20.569Z,1029.94
2017-01-08T06:59:43.435Z,1029.94
2017-01-08T07:01:05.515Z,1029.95
2017-01-08T07:02:28.070Z,1030
2017-01-08T07:03:50.946Z,1030.08
2017-01-08T07:05:12.661Z,1030.02
2017-01-08T07:06:34.728Z,1030.03
2017-01-08T07:07:57.296Z,1030.07
2017-01-08T07:09:19.365Z,1030.06
2017-01-08T07:10:41.809Z,1030.11
2017-01-08T07:12:03.876Z,1030.13
2017-01-08T07:13:26.345Z,1030.13
2017-01-08T07:14:48.433Z,1030.12
2017-01-08T07:16:11.352Z,1030.1
2017-01-08T07:17:33.411Z,1030.12
2017-01-08T07:18:55.491Z,1030.18
2017-01-08T07:20:18.032Z,1030.21
2017-01-08T07:21:40.136Z,1030.27
2017-01-08T07:23:02.666Z,1030.23
2017-01-08T07:24:25.194Z,1030.26
2017-01-08T07:25:47.233Z,1030.27
2017-01-08T07:27:09.726Z,1030.32
2017-01-08T07:28:31.899Z,1030.33
2017-01-08T07:29:54.530Z,1030.32
2017-01-08T07:31:16.993Z,1030.32
2017-01-08T07:32:38.651Z,1030.33
2017-01-08T07:34:00.716Z,1030.36
2017-01-08T07:35:23.268Z,1030.39
2017-01-08T07:36:45.807Z,1030.39
2017-01-08T07:38:07.923Z,1030.43
2017-01-08T07:39:29.601Z,1030.42
2017-01-08T07:40:52.498Z,1030.46
2017-01-08T07:42:15.445Z,1030.48
2017-01-08T07:43:36.724Z,1030.54
2017-01-08T07:44:59.196Z,1030.51
2017-01-08T07:46:22.146Z,1030.55
2017-01-08T07:47:44.518Z,1030.55
2017-01-08T07:49:06.988Z,1030.59
2017-01-08T07:50:28.274Z,1030.6
2017-01-08T07:51:50.772Z,1030.62
2017-01-08T07:53:13.210Z,1030.66
2017-01-08T07:54:35.274Z,1030.65
2017-01-08T07:55:57.323Z,1030.64
2017-01-08T07:57:19.806Z,1030.69
2017-01-08T07:58:41.865Z,1030.63
2017-01-08T08:00:03.951Z,1030.63
2017-01-08T08:01:26.420Z,1030.66
2017-01-08T08:02:48.866Z,1030.62
2017-01-08T08:04:10.961Z,1030.6
2017-01-08T08:05:33.868Z,1030.58
2017-01-08T08:06:56.752Z,1030.61
2017-01-08T08:08:19.253Z,1030.61
2017-01-08T08:09:41.750Z,1030.55
2017-01-08T08:11:03.438Z,1030.61
2017-01-08T08:12:24.718Z,1030.62
2017-01-08T08:13:47.274Z,1030.61
2017-01-08T08:15:09.743Z,1030.63
2017-01-08T08:16:32.324Z,1030.65
2017-01-08T08:17:54.806Z,1030.73
2017-01-08T08:19:17.703Z,1030.74
2017-01-08T08:20:40.151Z,1030.71
2017-01-08T08:22:02.615Z,1030.77
2017-01-08T08:23:25.203Z,1030.73
2017-01-08T08:24:47.670Z,1030.75
2017-01-08T08:26:09.801Z,1030.75
2017-01-08T08:27:32.276Z,1030.79
2017-01-08T08:28:54.345Z,1030.8
2017-01-08T08:30:16.182Z,1030.77
2017-01-08T08:31:39.063Z,1030.78
2017-01-08T08:33:01.561Z,1030.78
2017-01-08T08:34:23.615Z,1030.77
2017-01-08T08:35:45.410Z,1030.79
2017-01-08T08:37:08.306Z,1030.75
2017-01-08T08:38:30.011Z,1030.78
2017-01-08T08:39:51.677Z,1030.77
2017-01-08T08:41:13.742Z,1030.78
2017-01-08T08:42:35.021Z,1030.73
2017-01-08T08:43:57.099Z,1030.76
2017-01-08T08:45:19.979Z,1030.78
2017-01-08T08:46:43.092Z,1030.78
2017-01-08T08:48:05.665Z,1030.79
2017-01-08T08:49:28.600Z,1030.83
2017-01-08T08:50:51.468Z,1030.76
2017-01-08T08:52:13.534Z,1030.75
2017-01-08T08:53:35.599Z,1030.75
2017-01-08T08:54:57.658Z,1030.8
2017-01-08T08:56:19.777Z,1030.77
2017-01-08T08:57:42.670Z,1030.82
2017-01-08T08:59:05.138Z,1030.79
2017-01-08T09:00:27.640Z,1030.85
2017-01-08T09:01:50.148Z,1030.88
2017-01-08T09:03:12.731Z,1030.93
2017-01-08T09:04:35.697Z,1030.98
2017-01-08T09:05:58.188Z,1030.94
2017-01-08T09:07:20.264Z,1030.95
2017-01-08T09:08:42.338Z,1031.02
2017-01-08T09:10:04.839Z,1031.05
2017-01-08T09:11:26.301Z,1031.01
2017-01-08T09:12:48.398Z,1031.03
2017-01-08T09:14:10.503Z,1031.08
2017-01-08T09:15:33.427Z,1031.08
2017-01-08T09:16:55.938Z,1031.18
2017-01-08T09:18:18.494Z,1031.17
2017-01-08T09:19:40.545Z,1031.15
2017-01-08T09:21:03.401Z,1031.2
2017-01-08T09:22:25.186Z,1031.2
2017-01-08T09:23:47.265Z,1031.22
2017-01-08T09:25:09.449Z,1031.26
2017-01-08T09:26:31.929Z,1031.29
2017-01-08T09:27:54.467Z,1031.34
2017-01-08T09:29:16.944Z,1031.42
2017-01-08T09:30:40.002Z,1031.46
2017-01-08T09:32:02.898Z,1031.47
2017-01-08T09:33:24.964Z,1031.5
2017-01-08T09:34:47.447Z,1031.52
2017-01-08T09:36:09.624Z,1031.51
2017-01-08T09:37:32.598Z,1031.54
2017-01-08T09:38:54.666Z,1031.5
2017-01-08T09:40:17.159Z,1031.51
2017-01-08T09:41:39.660Z,1031.54
2017-01-08T09:43:01.751Z,1031.55
2017-01-08T09:44:24.622Z,1031.62
2017-01-08T09:45:47.517Z,1031.58
2017-01-08T09:47:08.890Z,1031.59
2017-01-08T09:48:31.383Z,1031.54
2017-01-08T09:49:54.260Z,1031.51
2017-01-08T09:51:17.190Z,1031.56
2017-01-08T09:52:39.500Z,1031.63
2017-01-08T09:54:02.005Z,1031.65
2017-01-08T09:55:24.460Z,1031.73
2017-01-08T09:56:46.541Z,1031.72
2017-01-08T09:58:08.611Z,1031.76
2017-01-08T09:59:31.140Z,1031.76
2017-01-08T10:00:54.118Z,1031.75
2017-01-08T10:02:16.599Z,1031.75
2017-01-08T10:03:39.527Z,1031.77
2017-01-08T10:05:00.801Z,1031.76
2017-01-08T10:06:23.276Z,1031.81
2017-01-08T10:07:45.342Z,1031.81
2017-01-08T10:09:07.902Z,1031.85
2017-01-08T10:10:30.366Z,1031.85
2017-01-08T10:11:53.358Z,1031.89
2017-01-08T10:13:16.399Z,1031.91
2017-01-08T10:14:38.975Z,1031.93
2017-01-08T10:16:00.691Z,1032.01
2017-01-08T10:17:23.759Z,1031.96
2017-01-08T10:18:46.381Z,1032.02
2017-01-08T10:20:08.561Z,1032.04
2017-01-08T10:21:30.903Z,1032.04
2017-01-08T10:22:54.058Z,1032.04
2017-01-08T10:24:17.111Z,1032.07
2017-01-08T10:25:40.220Z,1032.11
2017-01-08T10:27:02.899Z,1032.07
2017-01-08T10:28:24.409Z,1032.08
2017-01-08T10:29:46.250Z,1032.11
2017-01-08T10:31:08.626Z,1032.16
2017-01-08T10:32:30.920Z,1032.17
2017-01-08T10:33:53.191Z,1032.16
2017-01-08T10:35:16.052Z,1032.21
2017-01-08T10:36:38.479Z,1032.12
2017-01-08T10:38:00.504Z,1032.12
2017-01-08T10:39:23.839Z,1032.11
2017-01-08T10:40:46.799Z,1032.09
2017-01-08T10:42:10.189Z,1032.08
2017-01-08T10:43:33.023Z,1032.11
2017-01-08T10:44:55.407Z,1032.12
2017-01-08T10:46:18.188Z,1032.14
2017-01-08T10:47:40.218Z,1032.13
2017-01-08T10:49:02.416Z,1032.13
2017-01-08T10:50:25.166Z,1032.11
2017-01-08T10:51:47.529Z,1032.14
2017-01-08T10:53:10.281Z,1032.11
2017-01-08T10:54:32.530Z,1032.2
2017-01-08T10:55:56.029Z,1032.23
2017-01-08T10:57:18.847Z,1032.22
2017-01-08T10:58:41.939Z,1032.25
2017-01-08T11:00:04.793Z,1032.27
2017-01-08T11:01:28.069Z,1032.25
2017-01-08T11:02:50.824Z,1032.26
2017-01-08T11:04:13.305Z,1032.3
2017-01-08T11:05:37.224Z,1032.3
2017-01-08T11:06:59.608Z,1032.33
2017-01-08T11:08:21.601Z,1032.28
2017-01-08T11:09:45.249Z,1032.31
2017-01-08T11:11:07.670Z,1032.29
2017-01-08T11:12:30.925Z,1032.3
2017-01-08T11:13:53.523Z,1032.29
2017-01-08T11:15:17.142Z,1032.29
2017-01-08T11:16:40.506Z,1032.27
2017-01-08T11:18:03.416Z,1032.24
2017-01-08T11:19:27.589Z,1032.24
2017-01-08T11:20:51.255Z,1032.28
2017-01-08T11:22:15.379Z,1032.19
2017-01-08T11:23:37.538Z,1032.21
2017-01-08T11:25:00.400Z,1032.18
2017-01-08T11:26:24.082Z,1032.21
2017-01-08T11:27:46.810Z,1032.2
2017-01-08T11:29:10.510Z,1032.21
2017-01-08T11:30:33.807Z,1032.21
2017-01-08T11:31:57.824Z,1032.26
2017-01-08T11:33:21.417Z,1032.21
2017-01-08T11:34:44.831Z,1032.2
2017-01-08T11:36:07.015Z,1032.15
2017-01-08T11:37:29.889Z,1032.14
2017-01-08T11:38:52.523Z,1032.11
2017-01-08T11:40:16.699Z,1032.05
2017-01-08T11:41:40.832Z,1032
2017-01-08T11:43:04.442Z,1032
2017-01-08T11:44:28.064Z,1032.02
2017-01-08T11:45:51.400Z,1032.03
2017-01-08T11:47:15.199Z,1031.98
2017-01-08T11:48:39.530Z,1031.96
2017-01-08T11:50:03.381Z,1031.99
2017-01-08T11:51:27.551Z,1032.03
2017-01-08T11:52:50.276Z,1032.03
2017-01-08T11:54:15.229Z,1031.98
2017-01-08T11:55:38.236Z,1031.99
2017-01-08T11:57:02.038Z,1031.97
2017-01-08T11:58:25.476Z,1031.97
2017-01-08T11:59:49.481Z,1032.02
2017-01-08T12:01:11.900Z,1031.98
2017-01-08T12:02:36.100Z,1031.98
2017-01-08T12:04:01.293Z,1031.94
2017-01-08T12:05:24.991Z,1031.91
2017-01-08T12:06:48.657Z,1031.96
2017-01-08T12:08:11.118Z,1031.97
2017-01-08T12:09:35.825Z,1031.97
2017-01-08T12:10:59.160Z,1031.96
2017-01-08T12:12:21.981Z,1031.93
2017-01-08T12:13:46.182Z,1031.9
2017-01-08T12:15:09.344Z,1031.94
2017-01-08T12:16:33.262Z,1031.9
2017-01-08T12:17:57.441Z,1031.95
2017-01-08T12:19:22.334Z,1031.9
2017-01-08T12:20:45.948Z,1031.84
2017-01-08T12:22:09.626Z,1031.84
2017-01-08T12:23:32.732Z,1031.8
2017-01-08T12:24:54.923Z,1031.81
2017-01-08T12:26:18.771Z,1031.84
2017-01-08T12:27:42.561Z,1031.84
2017-01-08T12:29:04.665Z,1031.76
2017-01-08T12:30:27.276Z,1031.82
2017-01-08T12:31:51.191Z,1031.77
2017-01-08T12:33:14.992Z,1031.81
2017-01-08T12:34:38.661Z,1031.8
2017-01-08T12:36:02.365Z,1031.76
2017-01-08T12:37:26.032Z,1031.77
2017-01-08T12:38:49.534Z,1031.68
2017-01-08T12:40:11.991Z,1031.73
2017-01-08T12:41:36.561Z,1031.74
2017-01-08T12:42:59.531Z,1031.77
2017-01-08T12:44:24.394Z,1031.72
2017-01-08T12:45:48.002Z,1031.79
2017-01-08T12:47:12.621Z,1031.76
2017-01-08T12:48:34.349Z,1031.73
2017-01-08T12:49:58.773Z,1031.71
2017-01-08T12:51:22.325Z,1031.76
2017-01-08T12:52:46.534Z,1031.79
2017-01-08T12:54:11.819Z,1031.76
2017-01-08T12:55:35.004Z,1031.78
2017-01-08T12:56:57.585Z,1031.81
2017-01-08T12:58:20.333Z,1031.85
2017-01-08T12:59:45.551Z,1031.8
2017-01-08T13:01:10.294Z,1031.8
2017-01-08T13:02:34.983Z,1031.83
2017-01-08T13:03:59.927Z,1031.83
2017-01-08T13:05:24.376Z,1031.86
2017-01-08T13:06:47.940Z,1031.87
2017-01-08T13:08:11.327Z,1031.91
2017-01-08T13:09:34.407Z,1031.9
2017-01-08T13:10:58.405Z,1031.88
2017-01-08T13:12:22.013Z,1031.91
2017-01-08T13:13:45.391Z,1031.88
2017-01-08T13:15:07.842Z,1031.95
2017-01-08T13:16:31.682Z,1031.94
2017-01-08T13:17:56.770Z,1031.97
2017-01-08T13:19:20.006Z,1031.93
2017-01-08T13:20:43.462Z,1031.97
2017-01-08T13:22:06.744Z,1032
2017-01-08T13:23:29.783Z,1031.99
2017-01-08T13:24:53.945Z,1031.94
2017-01-08T13:26:18.024Z,1031.95
2017-01-08T13:27:43.367Z,1032.01
2017-01-08T13:29:06.805Z,1031.98
2017-01-08T13:30:30.011Z,1032
2017-01-08T13:31:53.255Z,1031.99
2017-01-08T13:33:17.079Z,1032.04
2017-01-08T13:34:41.283Z,1032.06
2017-01-08T13:36:05.796Z,1032.06
2017-01-08T13:37:30.248Z,1032.04
2017-01-08T13:38:54.155Z,1032.07
2017-01-08T13:40:17.429Z,1032.03
2017-01-08T13:41:41.655Z,1032
2017-01-08T13:43:04.545Z,1032
2017-01-08T13:44:27.701Z,1031.94
2017-01-08T13:45:51.700Z,1031.95
2017-01-08T13:47:15.431Z,1031.92
2017-01-08T13:48:38.637Z,1031.91
2017-01-08T13:50:02.141Z,1031.92
2017-01-08T13:51:25.660Z,1031.95
2017-01-08T13:52:48.799Z,1031.94
2017-01-08T13:54:12.947Z,1031.9
2017-01-08T13:55:36.917Z,1031.97
2017-01-08T13:57:00.648Z,1031.96
2017-01-08T13:58:23.795Z,1031.96
2017-01-08T13:59:47.722Z,1031.94
2017-01-08T14:01:11.153Z,1031.91
2017-01-08T14:02:35.196Z,1031.94
2017-01-08T14:03:57.285Z,1031.95
2017-01-08T14:05:20.396Z,1031.95
2017-01-08T14:06:43.484Z,1031.98
2017-01-08T14:08:06.775Z,1031.97
2017-01-08T14:09:30.594Z,1031.98
2017-01-08T14:10:54.180Z,1031.98
2017-01-08T14:12:17.393Z,1032.05
2017-01-08T14:13:41.193Z,1032.09
2017-01-08T14:15:04.496Z,1032.13
2017-01-08T14:16:28.225Z,1032.1
2017-01-08T14:17:52.679Z,1032.18
2017-01-08T14:19:15.869Z,1032.15
2017-01-08T14:20:37.586Z,1032.17
2017-01-08T14:21:59.616Z,1032.22
2017-01-08T14:23:23.047Z,1032.28
2017-01-08T14:24:45.506Z,1032.25
2017-01-08T14:26:09.411Z,1032.28
2017-01-08T14:27:33.075Z,1032.31
2017-01-08T14:28:55.676Z,1032.25
2017-01-08T14:30:19.152Z,1032.31
2017-01-08T14:31:42.198Z,1032.29
2017-01-08T14:33:05.887Z,1032.27
2017-01-08T14:34:28.723Z,1032.23
2017-01-08T14:35:51.863Z,1032.24
2017-01-08T14:37:16.590Z,1032.3
2017-01-08T14:38:39.815Z,1032.27
2017-01-08T14:40:03.297Z,1032.27
2017-01-08T14:41:28.947Z,1032.28
2017-01-08T14:42:52.412Z,1032.3
2017-01-08T14:44:15.533Z,1032.23
2017-01-08T14:45:39.487Z,1032.25
2017-01-08T14:47:03.541Z,1032.23
2017-01-08T14:48:28.039Z,1032.24
2017-01-08T14:49:52.859Z,1032.27
2017-01-08T14:51:16.591Z,1032.27
2017-01-08T14:52:39.966Z,1032.31
2017-01-08T14:54:05.514Z,1032.27
2017-01-08T14:55:28.437Z,1032.29
2017-01-08T14:56:50.926Z,1032.29
2017-01-08T14:58:14.835Z,1032.29
2017-01-08T14:59:37.625Z,1032.3
2017-01-08T15:01:01.639Z,1032.33
2017-01-08T15:02:24.747Z,1032.37
2017-01-08T15:03:48.121Z,1032.38
2017-01-08T15:05:11.937Z,1032.39
2017-01-08T15:06:35.657Z,1032.4
2017-01-08T15:07:59.214Z,1032.44
2017-01-08T15:09:24.483Z,1032.44
2017-01-08T15:10:49.229Z,1032.46
2017-01-08T15:12:12.457Z,1032.53
2017-01-08T15:13:35.169Z,1032.49
2017-01-08T15:14:59.435Z,1032.49
2017-01-08T15:16:22.678Z,1032.47
2017-01-08T15:17:47.311Z,1032.49
2017-01-08T15:19:09.998Z,1032.5
2017-01-08T15:20:34.390Z,1032.42
2017-01-08T15:21:57.951Z,1032.49
2017-01-08T15:23:21.028Z,1032.43
2017-01-08T15:24:44.202Z,1032.46
2017-01-08T15:26:08.087Z,1032.5
2017-01-08T15:27:31.604Z,1032.49
2017-01-08T15:28:54.710Z,1032.5
2017-01-08T15:30:18.402Z,1032.48
2017-01-08T15:31:42.734Z,1032.51
2017-01-08T15:33:08.129Z,1032.58
2017-01-08T15:34:31.924Z,1032.56
2017-01-08T15:35:54.394Z,1032.52
2017-01-08T15:37:17.973Z,1032.55
2017-01-08T15:38:41.783Z,1032.54
2017-01-08T15:40:06.272Z,1032.53
2017-01-08T15:41:29.362Z,1032.51
2017-01-08T15:42:53.030Z,1032.54
2017-01-08T15:44:17.303Z,1032.53
2017-01-08T15:45:40.983Z,1032.5
2017-01-08T15:47:04.713Z,1032.53
2017-01-08T15:48:28.028Z,1032.52
2017-01-08T15:49:52.222Z,1032.54
2017-01-08T15:51:15.921Z,1032.49
2017-01-08T15:52:41.406Z,1032.48
2017-01-08T15:54:06.602Z,1032.49
2017-01-08T15:55:28.904Z,1032.51
2017-01-08T15:56:52.729Z,1032.51
2017-01-08T15:58:16.011Z,1032.51
2017-01-08T15:59:40.052Z,1032.55
2017-01-08T16:01:02.730Z,1032.56
2017-01-08T16:02:26.362Z,1032.58
2017-01-08T16:03:50.439Z,1032.58
2017-01-08T16:05:13.074Z,1032.51
2017-01-08T16:06:37.326Z,1032.51
2017-01-08T16:08:01.998Z,1032.51
2017-01-08T16:09:25.589Z,1032.53
2017-01-08T16:10:49.540Z,1032.52
2017-01-08T16:12:13.070Z,1032.52
2017-01-08T16:13:37.257Z,1032.6
2017-01-08T16:15:00.612Z,1032.6
2017-01-08T16:16:24.955Z,1032.65
2017-01-08T16:17:50.252Z,1032.61
2017-01-08T16:19:13.300Z,1032.61
2017-01-08T16:20:38.767Z,1032.59
2017-01-08T16:22:03.202Z,1032.51
2017-01-08T16:23:26.415Z,1032.51
2017-01-08T16:24:50.604Z,1032.48
2017-01-08T16:26:15.537Z,1032.5
2017-01-08T16:27:39.717Z,1032.5
2017-01-08T16:29:03.879Z,1032.5
2017-01-08T16:30:27.645Z,1032.45
2017-01-08T16:31:51.830Z,1032.45
2017-01-08T16:33:15.474Z,1032.43
2017-01-08T16:34:40.480Z,1032.5
2017-01-08T16:36:04.970Z,1032.51
2017-01-08T16:37:29.467Z,1032.49
2017-01-08T16:38:52.711Z,1032.44
2017-01-08T16:40:16.289Z,1032.45
2017-01-08T16:41:39.905Z,1032.4
2017-01-08T16:43:03.479Z,1032.46
2017-01-08T16:44:27.051Z,1032.45
2017-01-08T16:45:49.773Z,1032.45